Terminal Aerodrome Forecast
Issued by NWS Amarillo, TX

Home | Current Version | Previous Version | Text Only | Print | Product List | Glossary On
Versions: 1 2 3 4 5 6 7 8 9 10 11 12
000
FTUS44 KAMA 011700
TAFGUY
TAF
KGUY 011726Z 0118/0218 36010KT P6SM FEW080 BKN300
     FM020300 05006KT P6SM BKN100 OVC200
     FM021000 35007KT P6SM BKN100 OVC200=

USA.gov is the U.S. government's official web portal to all federal, state and local government web resources and services.